Airfield :
LOGIN :

Register | Disclaimer

   EN    FR    IT 

 










Legend :    VFR   Marginal VFR   IFR   Intensive IFR   Very Intensive IFR
Visi :
Ceiling :
>= 8 km
>= 3000ft
5 to 8 km
1000 to 3000 ft
1500m to 5 km
500 to 1000 ft
800 to 1500m
200 to 500 ft
< 800m
< 200 ft
Symbols :   Thunderstorms  Fog  Heavy snow  Heavy precipitations  Wind > 20 kt
SIGMETs :     Misc.  Thunderstorms  Icing  Turbulence  Mountain Waves  Volcanic Ashes






- Airport Elevation : 408 ft
- IATA code : KWG


UKDR - Lozuvatka

CURRENT METAR :
  • 040700Z 11004MPS 2600 BR OVC003 M01/M03 Q1027 R36/19//60 TEMPO 1100 BR OVC002

EXPIRED METARs :
  • 040630Z 11005MPS 1800 BR OVC003 M01/M03 Q1026 R36/290255 TEMPO 1100 BR OVC002
  • 040600Z 10004MPS 1700 BR OVC003 M01/M03 Q1026 R36/290255 TEMPO 1100 BR OVC002
  • 040500Z 11004MPS 2000 BR OVC004 M01/M02 Q1026 R36/290255 NOSIG

TAF TAF UKDR
Valid from the 04 at 06:00 until the 05 at 06:00 UTC


040503Z 0406/0506 11005MPS 2000 BR OVC004 TX03/0412Z TNM01/0406Z
TEMPO 0406/0408 1100 BR OVC002
BECMG 0408/0410 4000 BR OVC007
UKDV FIR / Europe



MET'MAP, your aeronautical weather chart ! - Copyright ORBIFLY December 2007 - Disclaimer

ORBIFLY MET'MAP TEAM :

Programming & Development : Alexandra Zaïnal
Concept & original design : Baudouin d'Aumeries
Assistance for programming : Marc-Olivier Méhu
Technical & hardware support : Manuel Goepfert

Contact : metmap@orbifly.com




SOURCES & CREDITS :

   NOAA